Time;durP1;ratioP1;P1;durP2;ratioP2;P2;SDS_P1;SDS_P2;PMS_P1;PMS_P2;Temp;Humidity;BMP_temperature;BMP_pressure;BME280_temperature;BME280_humidity;BME280_pressure;Samples;Min_cycle;Max_cycle;Signal;HPM_P1;HPM_P2
2023/06/12 00:01:08;;;;;;;5.55;4.30;;;21.00;65.30;;;;;;5031983;28;20041;-65
2023/06/12 00:03:34;;;;;;;7.10;4.30;;;21.00;65.50;;;;;;5031810;28;20060;-66
2023/06/12 00:06:01;;;;;;;7.13;4.07;;;21.00;65.60;;;;;;5030919;28;20064;-65
2023/06/12 00:08:33;;;;;;;5.13;4.00;;;20.90;65.70;;;;;;5032232;28;20056;-65
2023/06/12 00:10:59;;;;;;;6.15;4.13;;;20.90;66.00;;;;;;5032201;28;20572;-65
2023/06/12 00:13:25;;;;;;;8.38;4.32;;;20.90;66.30;;;;;;5030631;28;20039;-66
2023/06/12 00:15:51;;;;;;;7.22;4.40;;;20.80;66.70;;;;;;5031609;28;20053;-65
2023/06/12 00:18:17;;;;;;;7.85;4.50;;;20.80;66.80;;;;;;5031770;28;20446;-65
2023/06/12 00:20:43;;;;;;;4.68;3.55;;;20.70;66.80;;;;;;5030690;28;20045;-65
2023/06/12 00:23:12;;;;;;;8.80;4.45;;;20.70;67.10;;;;;;5031891;28;20056;-65
2023/06/12 00:25:39;;;;;;;5.88;3.80;;;20.70;67.30;;;;;;5030013;28;20041;-65
2023/06/12 00:28:05;;;;;;;7.60;3.83;;;20.60;67.50;;;;;;5031596;28;20077;-65
2023/06/12 00:30:30;;;;;;;4.28;3.63;;;20.60;67.90;;;;;;5031747;28;20076;-65
2023/06/12 00:32:56;;;;;;;8.55;4.10;;;20.50;68.20;;;;;;5031243;28;20410;-65
2023/06/12 00:35:22;;;;;;;6.03;3.97;;;20.50;68.50;;;;;;5031430;28;20087;-65
2023/06/12 00:37:49;;;;;;;6.88;3.70;;;20.40;68.80;;;;;;5031569;28;20072;-65
2023/06/12 00:40:15;;;;;;;9.50;3.75;;;20.40;69.00;;;;;;5030602;28;20033;-65
2023/06/12 00:42:45;;;;;;;8.80;4.10;;;20.30;69.40;;;;;;5031730;28;20038;-65
2023/06/12 00:45:29;;;;;;;10.63;4.60;;;20.30;69.70;;;;;;5031209;28;20503;-65
2023/06/12 00:47:57;;;;;;;5.93;4.15;;;20.20;70.10;;;;;;5031892;28;20033;-65
2023/06/12 00:50:27;;;;;;;7.35;4.07;;;20.20;70.50;;;;;;5031457;28;20069;-65
2023/06/12 00:52:53;;;;;;;6.90;4.13;;;20.20;70.80;;;;;;5033172;28;20403;-66
2023/06/12 00:55:19;;;;;;;8.90;4.13;;;20.10;71.10;;;;;;5035082;28;20045;-65
2023/06/12 00:57:47;;;;;;;7.57;4.00;;;20.10;71.40;;;;;;5035411;28;20398;-66
2023/06/12 01:00:14;;;;;;;7.40;3.97;;;20.10;71.80;;;;;;5035648;28;20046;-65
2023/06/12 01:02:48;;;;;;;5.78;3.97;;;20.10;72.20;;;;;;5034150;28;20507;-65
2023/06/12 01:05:19;;;;;;;5.78;4.40;;;20.10;72.50;;;;;;5033985;28;20037;-65
2023/06/12 01:07:58;;;;;;;7.05;4.13;;;20.00;72.80;;;;;;5035303;28;20092;-65
2023/06/12 01:10:40;;;;;;;7.28;4.32;;;20.00;73.10;;;;;;5035561;28;20038;-65
2023/06/12 01:13:09;;;;;;;14.85;4.40;;;19.90;73.70;;;;;;5035429;28;20167;-65
2023/06/12 01:15:35;;;;;;;6.07;3.70;;;19.80;74.20;;;;;;5034725;28;20092;-65
2023/06/12 01:18:02;;;;;;;7.25;3.80;;;19.80;74.80;;;;;;5035203;28;20069;-65
2023/06/12 01:20:28;;;;;;;9.70;3.88;;;19.70;75.30;;;;;;5035091;28;20048;-65
2023/06/12 01:23:09;;;;;;;6.20;3.80;;;19.70;75.90;;;;;;5032844;28;20033;-65
2023/06/12 01:25:37;;;;;;;;;;;19.60;76.50;;;;;;5033858;28;20518;-65
2023/06/12 01:28:25;;;;;;;6.43;3.83;;;19.50;77.40;;;;;;5034532;28;20375;-65
2023/06/12 01:31:13;;;;;;;7.07;3.95;;;19.40;77.80;;;;;;5034899;28;20558;-65
2023/06/12 01:33:47;;;;;;;9.48;4.43;;;19.40;78.60;;;;;;5033295;28;20068;-65
2023/06/12 01:36:19;;;;;;;6.53;4.05;;;19.40;79.20;;;;;;5033477;28;20045;-65
2023/06/12 01:38:52;;;;;;;7.25;4.13;;;19.40;79.90;;;;;;5033640;28;20434;-65
2023/06/12 01:41:21;;;;;;;5.95;3.67;;;19.40;80.40;;;;;;5033993;28;20046;-65
2023/06/12 01:43:46;;;;;;;7.05;4.10;;;19.40;81.00;;;;;;5034422;28;20038;-65
2023/06/12 01:46:12;;;;;;;10.80;4.45;;;19.30;81.60;;;;;;5033231;28;20041;-64
2023/06/12 01:48:40;;;;;;;6.78;3.58;;;19.30;82.10;;;;;;5034298;28;20470;-65
2023/06/12 01:51:05;;;;;;;7.50;3.75;;;19.30;82.70;;;;;;5034626;28;20049;-65
2023/06/12 01:53:31;;;;;;;5.88;3.67;;;19.30;83.20;;;;;;5033960;28;20041;-66
2023/06/12 01:55:56;;;;;;;7.45;3.90;;;19.30;83.60;;;;;;5033497;28;20048;-64
2023/06/12 01:58:22;;;;;;;6.15;3.70;;;19.30;84.50;;;;;;5033883;28;20092;-65
2023/06/12 02:00:48;;;;;;;7.30;3.60;;;19.20;85.40;;;;;;5032548;28;20435;-65
2023/06/12 02:03:13;;;;;;;6.15;3.85;;;19.20;86.20;;;;;;5032047;28;20041;-65
2023/06/12 02:05:39;;;;;;;7.60;4.10;;;19.20;86.60;;;;;;5031616;28;20042;-65
2023/06/12 02:08:04;;;;;;;6.70;3.83;;;19.10;87.10;;;;;;5033015;28;20037;-65
2023/06/12 02:10:30;;;;;;;8.30;4.03;;;19.10;87.60;;;;;;5033999;28;20107;-65
2023/06/12 02:12:56;;;;;;;5.93;4.15;;;19.10;88.30;;;;;;5033186;28;20116;-65
2023/06/12 02:15:21;;;;;;;11.63;4.18;;;19.10;89.20;;;;;;5032331;28;20045;-66
2023/06/12 02:17:47;;;;;;;7.18;3.67;;;19.10;90.00;;;;;;5033874;28;20029;-65
2023/06/12 02:20:12;;;;;;;7.03;4.03;;;18.90;90.40;;;;;;5034180;28;20108;-65
2023/06/12 02:22:38;;;;;;;7.07;3.92;;;18.90;90.80;;;;;;5033965;28;20121;-65
2023/06/12 02:25:04;;;;;;;8.73;4.43;;;19.00;91.20;;;;;;5033358;28;20029;-65
2023/06/12 02:27:29;;;;;;;8.70;4.00;;;18.90;91.60;;;;;;5033984;28;20029;-66
2023/06/12 02:29:55;;;;;;;12.00;4.50;;;18.80;91.80;;;;;;5033858;28;20048;-65
2023/06/12 02:32:20;;;;;;;10.27;4.45;;;18.80;92.20;;;;;;5033945;28;20037;-65
2023/06/12 02:34:47;;;;;;;8.05;3.60;;;18.80;92.60;;;;;;5033525;28;20458;-65
2023/06/12 02:37:12;;;;;;;6.22;3.60;;;18.70;93.00;;;;;;5033536;28;20123;-65
2023/06/12 02:39:38;;;;;;;7.00;4.28;;;18.70;93.50;;;;;;5032533;28;20088;-65
2023/06/12 02:42:04;;;;;;;6.85;4.00;;;18.60;93.90;;;;;;5033478;28;20491;-65
2023/06/12 02:44:29;;;;;;;4.65;3.80;;;18.60;94.30;;;;;;5031940;28;20045;-65
2023/06/12 02:47:00;;;;;;;5.50;3.83;;;18.50;94.80;;;;;;5033529;28;20044;-66
2023/06/12 02:49:27;;;;;;;6.78;3.95;;;18.50;95.20;;;;;;5033581;28;20045;-65
2023/06/12 02:51:54;;;;;;;8.32;4.07;;;18.40;95.60;;;;;;5033469;28;20041;-65
2023/06/12 02:54:22;;;;;;;6.53;4.25;;;18.40;95.90;;;;;;5032778;28;20038;-65
2023/06/12 02:56:48;;;;;;;8.18;4.72;;;18.50;96.10;;;;;;5031541;28;20041;-65
2023/06/12 02:59:23;;;;;;;6.97;4.30;;;18.50;96.30;;;;;;5031957;28;20041;-65
2023/06/12 03:01:48;;;;;;;6.82;4.00;;;18.50;96.40;;;;;;5033311;28;20033;-66
2023/06/12 03:04:18;;;;;;;10.30;4.70;;;18.50;96.70;;;;;;5032393;28;20037;-65
2023/06/12 03:06:45;;;;;;;7.80;4.57;;;18.50;96.90;;;;;;5031672;28;20103;-65
2023/06/12 03:09:11;;;;;;;7.38;4.18;;;18.50;97.10;;;;;;5032998;28;20041;-65
2023/06/12 03:11:37;;;;;;;7.88;4.20;;;18.40;97.50;;;;;;5031767;28;20045;-65
2023/06/12 03:14:04;;;;;;;9.48;4.30;;;18.30;97.80;;;;;;5015048;28;20454;-65
2023/06/12 03:16:30;;;;;;;7.35;4.07;;;18.40;98.20;;;;;;5014264;28;20073;-65
2023/06/12 03:18:57;;;;;;;8.25;4.07;;;18.40;98.50;;;;;;5032977;28;20478;-65
2023/06/12 03:21:23;;;;;;;7.20;3.80;;;18.30;98.80;;;;;;5032698;28;20041;-65
2023/06/12 03:23:48;;;;;;;13.40;3.80;;;18.30;99.20;;;;;;5032763;28;20106;-65
2023/06/12 03:26:14;;;;;;;10.30;4.15;;;18.20;99.40;;;;;;5032775;28;20499;-65
2023/06/12 03:28:40;;;;;;;8.93;4.85;;;18.20;99.80;;;;;;5030544;28;20041;-65
2023/06/12 03:31:05;;;;;;;9.82;4.40;;;18.10;99.90;;;;;;5031413;28;20086;-65
2023/06/12 03:33:31;;;;;;;6.35;3.95;;;18.10;99.90;;;;;;5032414;28;20042;-64
2023/06/12 03:35:57;;;;;;;6.72;4.22;;;18.10;99.90;;;;;;5030943;28;20068;-65
2023/06/12 03:38:23;;;;;;;8.98;4.07;;;17.90;99.90;;;;;;5031862;28;20052;-65
2023/06/12 03:40:48;;;;;;;7.53;4.70;;;17.90;99.90;;;;;;5032690;28;20038;-65
2023/06/12 03:43:14;;;;;;;8.20;4.80;;;17.90;99.90;;;;;;5032242;28;20037;-66
2023/06/12 03:45:39;;;;;;;5.88;4.85;;;17.90;99.90;;;;;;5031713;28;20033;-65
2023/06/12 03:48:05;;;;;;;6.85;4.53;;;17.80;99.90;;;;;;5032196;28;20041;-65
2023/06/12 03:50:31;;;;;;;8.20;5.05;;;17.70;99.90;;;;;;5032140;28;20037;-65
2023/06/12 03:52:57;;;;;;;8.68;4.68;;;17.70;99.90;;;;;;5030450;28;20044;-64
2023/06/12 03:55:23;;;;;;;8.15;4.63;;;17.70;99.90;;;;;;5031782;28;20029;-65
2023/06/12 03:57:49;;;;;;;13.45;5.00;;;17.70;99.90;;;;;;5032262;28;20072;-65
2023/06/12 04:00:15;;;;;;;8.77;5.10;;;17.70;99.90;;;;;;5029207;28;20037;-65
2023/06/12 04:02:42;;;;;;;10.23;5.07;;;17.70;99.90;;;;;;5031792;28;20041;-65
2023/06/12 04:05:08;;;;;;;8.15;4.78;;;17.60;99.90;;;;;;5029553;28;20183;-66
2023/06/12 04:07:36;;;;;;;7.03;4.60;;;17.60;99.90;;;;;;5031135;28;20049;-65
2023/06/12 04:10:03;;;;;;;9.07;4.57;;;17.60;99.90;;;;;;5030600;28;20556;-65
2023/06/12 04:12:28;;;;;;;7.57;4.15;;;17.50;99.90;;;;;;5032178;28;20041;-65
2023/06/12 04:14:54;;;;;;;8.52;4.47;;;17.40;99.90;;;;;;5031347;28;20168;-65
2023/06/12 04:17:19;;;;;;;9.35;4.80;;;17.40;99.90;;;;;;5030538;28;20045;-65
2023/06/12 04:19:48;;;;;;;7.15;4.53;;;17.30;99.90;;;;;;5031312;28;20037;-65
2023/06/12 04:22:15;;;;;;;8.93;4.47;;;17.30;99.90;;;;;;5031891;28;20109;-65
2023/06/12 04:24:42;;;;;;;8.35;4.30;;;17.30;99.90;;;;;;5031351;28;20044;-65
2023/06/12 04:27:11;;;;;;;8.60;4.40;;;17.20;99.90;;;;;;5030768;28;20037;-65
2023/06/12 04:29:37;;;;;;;7.55;4.28;;;17.20;99.90;;;;;;5031537;28;20102;-65
2023/06/12 04:32:07;;;;;;;9.93;5.00;;;17.10;99.90;;;;;;5030534;28;20495;-65
2023/06/12 04:34:45;;;;;;;10.48;4.68;;;17.20;99.90;;;;;;5030026;28;20128;-65
2023/06/12 04:37:13;;;;;;;10.10;5.65;;;17.20;99.90;;;;;;5031765;28;20049;-65
2023/06/12 04:39:40;;;;;;;8.43;5.45;;;17.30;99.90;;;;;;5031857;28;20045;-65
2023/06/12 04:42:08;;;;;;;8.98;5.05;;;17.40;99.90;;;;;;5031445;28;20084;-65
2023/06/12 04:44:35;;;;;;;9.50;4.90;;;17.50;99.90;;;;;;5029251;28;20574;-65
2023/06/12 04:47:04;;;;;;;6.95;4.90;;;17.50;99.90;;;;;;5030222;28;20209;-65
2023/06/12 04:49:32;;;;;;;8.43;4.85;;;17.50;99.90;;;;;;5031829;28;20041;-65
2023/06/12 04:52:00;;;;;;;8.80;4.60;;;17.60;99.90;;;;;;5031720;28;20084;-65
2023/06/12 04:54:28;;;;;;;9.98;4.90;;;17.60;99.90;;;;;;5031237;28;20041;-65
2023/06/12 04:56:54;;;;;;;10.05;5.40;;;17.70;99.90;;;;;;5030349;28;20045;-65
2023/06/12 04:59:20;;;;;;;8.25;5.00;;;17.70;99.90;;;;;;5031398;28;20040;-65
2023/06/12 05:01:46;;;;;;;7.00;4.38;;;17.80;99.90;;;;;;5031788;28;20124;-64
2023/06/12 05:04:11;;;;;;;6.72;4.72;;;17.90;99.90;;;;;;5029903;28;20121;-65
2023/06/12 05:06:40;;;;;;;7.57;4.82;;;18.00;99.90;;;;;;5031434;28;20052;-65
2023/06/12 05:09:07;;;;;;;9.38;5.50;;;18.10;99.90;;;;;;5031564;28;20037;-65
2023/06/12 05:11:33;;;;;;;10.00;5.13;;;18.20;99.90;;;;;;5031557;28;20046;-65
2023/06/12 05:13:58;;;;;;;9.05;5.28;;;18.20;99.90;;;;;;5030919;28;20041;-65
2023/06/12 05:16:24;;;;;;;9.43;4.95;;;18.30;99.90;;;;;;5031120;28;20050;-65
2023/06/12 05:18:50;;;;;;;9.50;5.30;;;18.40;99.90;;;;;;5030047;28;20041;-65
2023/06/12 05:21:18;;;;;;;9.20;5.38;;;18.50;99.90;;;;;;5031659;28;20041;-65
2023/06/12 05:23:44;;;;;;;10.65;4.80;;;18.50;99.90;;;;;;5031162;28;20037;-65
2023/06/12 05:26:10;;;;;;;9.13;5.28;;;18.70;99.90;;;;;;5031277;28;20056;-65
2023/06/12 05:28:36;;;;;;;10.27;5.65;;;18.80;99.90;;;;;;5029706;28;20041;-65
2023/06/12 05:31:03;;;;;;;11.30;5.13;;;18.90;99.90;;;;;;5031500;28;20041;-65
2023/06/12 05:33:29;;;;;;;9.48;5.60;;;19.00;99.90;;;;;;5031262;28;20117;-65
2023/06/12 05:35:55;;;;;;;9.07;5.38;;;19.20;99.90;;;;;;5030877;28;20503;-65
2023/06/12 05:38:22;;;;;;;10.40;5.22;;;19.50;99.90;;;;;;5031668;28;20076;-65
2023/06/12 05:40:47;;;;;;;12.23;5.43;;;19.60;99.90;;;;;;5034841;28;20087;-65
2023/06/12 05:43:13;;;;;;;8.40;5.78;;;19.70;99.90;;;;;;5033347;28;20449;-65
2023/06/12 05:45:38;;;;;;;10.60;5.32;;;19.70;99.90;;;;;;5034206;28;20116;-65
2023/06/12 05:48:04;;;;;;;14.15;5.80;;;19.80;99.90;;;;;;5034718;28;20402;-65
2023/06/12 05:50:30;;;;;;;20.25;6.53;;;19.80;99.90;;;;;;5034203;28;20033;-65
2023/06/12 05:52:55;;;;;;;10.00;5.65;;;19.90;99.90;;;;;;5034004;28;20033;-65
2023/06/12 05:55:21;;;;;;;9.75;5.40;;;19.90;99.90;;;;;;5033637;28;20038;-65
2023/06/12 05:57:47;;;;;;;9.18;5.47;;;19.90;99.90;;;;;;5034190;28;20395;-65
2023/06/12 06:00:13;;;;;;;9.38;5.68;;;19.90;99.90;;;;;;5034677;28;20053;-65
2023/06/12 06:02:39;;;;;;;8.60;6.13;;;20.00;99.90;;;;;;5033113;28;20056;-65
2023/06/12 06:05:09;;;;;;;8.40;5.82;;;20.10;99.90;;;;;;5033789;28;20029;-65
2023/06/12 06:07:35;;;;;;;10.20;5.97;;;20.10;99.90;;;;;;5033028;28;20487;-65
2023/06/12 06:10:01;;;;;;;12.98;5.60;;;20.10;99.90;;;;;;5033347;28;20045;-65
2023/06/12 06:12:26;;;;;;;10.63;6.53;;;20.20;99.90;;;;;;5034220;28;20048;-65
2023/06/12 06:14:52;;;;;;;12.60;6.13;;;20.20;99.90;;;;;;5033929;28;20037;-65
2023/06/12 06:17:19;;;;;;;11.75;5.78;;;20.20;99.90;;;;;;5034075;28;20414;-65
2023/06/12 06:19:45;;;;;;;10.70;6.43;;;20.40;99.90;;;;;;5034073;28;20038;-65
2023/06/12 06:22:11;;;;;;;8.63;6.40;;;20.50;99.90;;;;;;5033927;28;20040;-65
2023/06/12 06:24:36;;;;;;;9.32;6.35;;;20.50;99.90;;;;;;5032242;28;20048;-65
2023/06/12 06:27:02;;;;;;;14.40;6.25;;;20.60;99.90;;;;;;5032327;28;20398;-65
2023/06/12 06:29:28;;;;;;;12.80;6.20;;;20.70;99.90;;;;;;5032634;28;20095;-65
2023/06/12 06:31:53;;;;;;;7.68;6.30;;;20.90;99.90;;;;;;5032629;28;20045;-65
2023/06/12 06:34:19;;;;;;;10.60;6.65;;;21.10;99.90;;;;;;5033537;28;20095;-65
2023/06/12 06:36:45;;;;;;;8.40;5.88;;;21.30;99.90;;;;;;5033607;28;20087;-65
2023/06/12 06:39:10;;;;;;;10.50;6.72;;;21.30;99.90;;;;;;5033756;28;20065;-65
2023/06/12 06:41:37;;;;;;;9.77;6.50;;;21.40;99.90;;;;;;5033638;28;20507;-65
2023/06/12 06:44:03;;;;;;;11.90;6.25;;;21.60;99.90;;;;;;5033430;28;20049;-65
2023/06/12 06:46:29;;;;;;;10.73;6.35;;;21.70;99.90;;;;;;5033604;28;20487;-65
2023/06/12 06:48:54;;;;;;;10.65;6.30;;;21.90;99.90;;;;;;5033401;28;20041;-65
2023/06/12 06:51:20;;;;;;;10.02;6.07;;;22.00;99.90;;;;;;5031929;28;20111;-65
2023/06/12 06:53:46;;;;;;;11.13;6.63;;;22.10;99.90;;;;;;5031747;28;20115;-65
2023/06/12 06:56:11;;;;;;;11.93;6.18;;;22.10;99.50;;;;;;5031436;28;20141;-65
2023/06/12 06:58:37;;;;;;;11.80;6.25;;;22.20;99.00;;;;;;5032021;28;20048;-65
2023/06/12 07:01:03;;;;;;;10.98;6.25;;;22.30;99.20;;;;;;5033386;28;20410;-65
2023/06/12 07:03:28;;;;;;;9.35;5.93;;;22.40;98.90;;;;;;5033149;28;20037;-65
2023/06/12 07:05:54;;;;;;;12.65;6.57;;;22.50;98.90;;;;;;5032081;28;20052;-65
2023/06/12 07:08:20;;;;;;;10.48;6.15;;;22.60;98.40;;;;;;5032600;28;20037;-65
2023/06/12 07:10:45;;;;;;;11.80;6.40;;;22.60;98.00;;;;;;5032681;28;20039;-65
2023/06/12 07:13:11;;;;;;;7.43;5.88;;;22.70;98.20;;;;;;5033170;28;20458;-65
2023/06/12 07:15:37;;;;;;;10.30;6.32;;;22.80;98.00;;;;;;5031778;28;20463;-65
2023/06/12 07:18:03;;;;;;;12.85;5.93;;;22.90;96.90;;;;;;5032908;28;20079;-65
2023/06/12 07:20:29;;;;;;;13.18;6.47;;;23.00;96.60;;;;;;5032460;28;20040;-65
2023/06/12 07:22:54;;;;;;;9.55;6.38;;;23.10;97.00;;;;;;5032780;28;20376;-65
2023/06/12 07:25:20;;;;;;;10.85;5.40;;;23.20;96.60;;;;;;5032435;28;20068;-65
2023/06/12 07:27:46;;;;;;;10.80;6.70;;;23.40;96.30;;;;;;5032820;28;20033;-65
2023/06/12 07:30:11;;;;;;;10.38;6.75;;;23.50;96.10;;;;;;5031647;28;20045;-65
2023/06/12 07:32:37;;;;;;;12.93;6.28;;;23.60;95.70;;;;;;5031838;28;20087;-65
2023/06/12 07:35:03;;;;;;;7.22;5.60;;;23.70;96.00;;;;;;5032382;28;20064;-65
2023/06/12 07:37:35;;;;;;;11.73;5.50;;;23.80;95.30;;;;;;5032104;28;20048;-65
2023/06/12 07:40:03;;;;;;;10.05;5.80;;;24.00;95.10;;;;;;5032509;28;20107;-65
2023/06/12 07:42:29;;;;;;;7.57;5.47;;;24.30;94.30;;;;;;5032952;28;20427;-65
2023/06/12 07:44:54;;;;;;;9.80;5.85;;;24.50;93.80;;;;;;5032264;28;20033;-65
2023/06/12 07:47:20;;;;;;;11.10;5.95;;;24.50;93.40;;;;;;5032311;28;20502;-65
2023/06/12 07:49:45;;;;;;;9.52;6.15;;;24.50;93.00;;;;;;5032279;28;20040;-65
2023/06/12 07:52:11;;;;;;;7.60;5.50;;;24.60;92.40;;;;;;5032191;28;20041;-65
2023/06/12 07:54:37;;;;;;;7.40;5.22;;;24.70;92.00;;;;;;5031803;28;20045;-65
2023/06/12 07:57:04;;;;;;;7.95;6.00;;;24.80;91.30;;;;;;5032461;28;20064;-65
2023/06/12 07:59:29;;;;;;;7.93;5.50;;;25.00;91.20;;;;;;5031183;28;20049;-65
2023/06/12 08:01:56;;;;;;;10.70;6.60;;;25.00;90.40;;;;;;5031939;28;20040;-65
2023/06/12 08:04:21;;;;;;;8.32;5.68;;;25.10;90.00;;;;;;5031916;28;20041;-65
2023/06/12 08:06:47;;;;;;;10.55;5.65;;;25.20;88.90;;;;;;5031919;28;20049;-65
2023/06/12 08:09:13;;;;;;;9.30;5.85;;;25.40;88.50;;;;;;5032025;28;20454;-65
2023/06/12 08:11:40;;;;;;;10.40;5.93;;;25.50;86.50;;;;;;5014349;28;20045;-65
2023/06/12 08:14:05;;;;;;;11.30;6.15;;;25.70;85.80;;;;;;5030529;28;20045;-65
2023/06/12 08:16:32;;;;;;;10.38;5.38;;;25.70;85.90;;;;;;5031330;28;20136;-65
2023/06/12 08:18:57;;;;;;;11.50;5.88;;;25.80;85.20;;;;;;5031838;28;20538;-65
2023/06/12 08:21:25;;;;;;;9.90;6.00;;;25.90;83.50;;;;;;5030260;28;20109;-65
2023/06/12 08:23:51;;;;;;;10.32;6.22;;;26.10;83.10;;;;;;5031932;28;20033;-65
2023/06/12 08:26:17;;;;;;;8.80;6.65;;;26.20;82.40;;;;;;5030752;28;20060;-65
2023/06/12 08:28:47;;;;;;;8.48;6.25;;;26.30;80.90;;;;;;5031809;28;20037;-65
2023/06/12 08:31:13;;;;;;;11.15;6.00;;;26.20;81.00;;;;;;5031928;28;20096;-65
2023/06/12 08:33:38;;;;;;;12.02;5.78;;;26.20;80.50;;;;;;5031662;28;20041;-65
2023/06/12 08:36:04;;;;;;;9.85;5.78;;;26.20;80.70;;;;;;5031401;28;20403;-65
2023/06/12 08:38:30;;;;;;;8.25;5.75;;;26.30;79.60;;;;;;5030483;28;20376;-65
2023/06/12 08:40:58;;;;;;;10.15;6.35;;;26.30;77.90;;;;;;5031867;28;20034;-65
2023/06/12 08:43:25;;;;;;;11.52;5.75;;;26.40;77.70;;;;;;5031580;28;20041;-65
2023/06/12 08:45:52;;;;;;;10.50;6.38;;;26.50;77.30;;;;;;5031527;28;20056;-65
2023/06/12 08:48:19;;;;;;;7.38;5.60;;;26.70;76.10;;;;;;5031650;28;20041;-65
2023/06/12 08:50:46;;;;;;;7.57;5.60;;;26.80;72.70;;;;;;5031369;28;20041;-65
2023/06/12 08:53:12;;;;;;;9.40;5.85;;;26.90;73.70;;;;;;5030080;28;20057;-65
2023/06/12 08:55:42;;;;;;;9.00;5.80;;;27.00;73.50;;;;;;5030969;28;20422;-65
2023/06/12 08:58:09;;;;;;;10.18;5.85;;;27.10;71.90;;;;;;5030013;28;20049;-65
2023/06/12 09:00:35;;;;;;;10.05;5.63;;;27.10;70.40;;;;;;5030533;28;20553;-65
2023/06/12 09:03:04;;;;;;;13.20;5.85;;;27.30;70.30;;;;;;5031413;28;20041;-65
2023/06/12 09:05:33;;;;;;;10.98;6.03;;;27.50;70.40;;;;;;5029841;28;20068;-65
2023/06/12 09:08:03;;;;;;;7.53;5.30;;;27.60;68.50;;;;;;5031337;28;20087;-65
2023/06/12 09:10:33;;;;;;;9.02;5.95;;;27.80;68.50;;;;;;5030273;28;20045;-65
2023/06/12 09:13:01;;;;;;;9.55;6.13;;;27.90;68.20;;;;;;5031049;28;20041;-65
2023/06/12 09:15:27;;;;;;;7.90;5.88;;;28.00;66.90;;;;;;5034928;28;20075;-65
2023/06/12 09:17:54;;;;;;;8.70;5.75;;;28.10;67.70;;;;;;5034882;28;20037;-65
2023/06/12 09:20:27;;;;;;;9.07;5.88;;;28.10;68.20;;;;;;5035343;28;20383;-65
2023/06/12 09:22:58;;;;;;;7.40;5.68;;;28.10;67.80;;;;;;5034664;28;20502;-65
2023/06/12 09:25:41;;;;;;;7.50;6.03;;;28.20;68.80;;;;;;5033563;28;20080;-65
2023/06/12 09:28:09;;;;;;;7.88;6.03;;;28.40;66.20;;;;;;5033193;28;20037;-65
2023/06/12 09:30:41;;;;;;;8.85;6.50;;;28.50;63.80;;;;;;5033249;28;20048;-65
2023/06/12 09:33:08;;;;;;;9.20;5.82;;;28.50;62.80;;;;;;5033560;28;20072;-65
2023/06/12 09:35:50;;;;;;;8.98;5.63;;;28.50;63.20;;;;;;5033551;28;20128;-66
2023/06/12 09:38:15;;;;;;;10.52;6.20;;;28.70;61.80;;;;;;5034763;28;20040;-66
2023/06/12 09:40:41;;;;;;;10.48;6.10;;;28.60;60.00;;;;;;5033289;28;20116;-65
2023/06/12 09:43:06;;;;;;;9.02;6.22;;;28.70;60.00;;;;;;5034872;28;20037;-65
2023/06/12 09:45:32;;;;;;;8.15;6.72;;;28.80;58.90;;;;;;5034455;28;20039;-65
2023/06/12 09:47:58;;;;;;;10.90;6.78;;;28.90;58.90;;;;;;5034745;28;20079;-65
2023/06/12 09:50:25;;;;;;;8.68;6.90;;;28.90;56.60;;;;;;5033578;28;20159;-65
2023/06/12 09:52:54;;;;;;;6.88;5.93;;;29.00;54.40;;;;;;5034617;28;20120;-65
2023/06/12 09:55:20;;;;;;;7.30;6.50;;;29.10;54.20;;;;;;5059199;22;20095;-64
2023/06/12 09:57:49;;;;;;;17.40;7.55;;;29.30;54.00;;;;;;5095270;28;20044;-65
2023/06/12 10:00:16;;;;;;;9.75;6.70;;;29.50;53.00;;;;;;5094753;28;20032;-64
2023/06/12 10:03:00;;;;;;;7.55;6.72;;;29.60;51.80;;;;;;5094152;28;20067;-65
2023/06/12 10:05:35;;;;;;;7.22;6.53;;;29.70;50.90;;;;;;5094256;28;20181;-65
2023/06/12 10:08:03;;;;;;;8.15;6.03;;;29.80;50.50;;;;;;5094028;28;20032;-65
2023/06/12 10:10:35;;;;;;;7.97;6.07;;;29.90;50.20;;;;;;5094353;28;20106;-65
2023/06/12 10:13:02;;;;;;;8.48;5.72;;;29.90;47.90;;;;;;5093689;28;20093;-65
2023/06/12 10:15:30;;;;;;;7.00;6.30;;;30.00;46.60;;;;;;5093896;28;20093;-64
2023/06/12 10:17:57;;;;;;;12.48;6.35;;;30.00;45.10;;;;;;5094471;28;20036;-65
2023/06/12 10:20:24;;;;;;;9.13;6.00;;;30.00;44.90;;;;;;5093872;28;20047;-65
2023/06/12 10:22:52;;;;;;;6.97;5.63;;;30.00;44.40;;;;;;5094026;28;20681;-65
2023/06/12 10:25:19;;;;;;;10.23;6.50;;;30.00;45.40;;;;;;5092381;28;20107;-65
2023/06/12 10:27:45;;;;;;;8.15;6.43;;;30.00;45.40;;;;;;5087198;28;20068;-65
2023/06/12 10:30:12;;;;;;;7.32;6.40;;;30.00;45.40;;;;;;5072319;28;20036;-65
2023/06/12 10:32:40;;;;;;;8.10;6.43;;;30.10;45.90;;;;;;5073673;28;20044;-65
2023/06/12 10:35:07;;;;;;;8.88;6.30;;;30.10;46.50;;;;;;5071420;28;20532;-65
2023/06/12 10:37:42;;;;;;;7.85;6.50;;;29.90;46.90;;;;;;5075297;28;20520;-65
2023/06/12 10:40:11;;;;;;;8.15;6.22;;;29.80;48.10;;;;;;5080672;28;20079;-65
2023/06/12 10:42:47;;;;;;;7.47;6.30;;;29.70;48.20;;;;;;5080243;28;20049;-65
2023/06/12 10:45:29;;;;;;;9.90;7.07;;;29.90;47.40;;;;;;5076002;28;20035;-65
2023/06/12 10:48:04;;;;;;;7.80;6.47;;;30.10;45.30;;;;;;5090942;28;20067;-65
2023/06/12 10:50:52;;;;;;;9.35;6.88;;;30.20;44.70;;;;;;5075542;28;20044;-64
2023/06/12 10:53:29;;;;;;;9.18;6.78;;;30.30;43.10;;;;;;5070005;28;20050;-64
2023/06/12 10:56:03;;;;;;;9.98;7.47;;;30.40;43.60;;;;;;5085198;28;20106;-64
2023/06/12 10:58:41;;;;;;;7.82;6.63;;;30.50;43.70;;;;;;5071363;28;20155;-64
2023/06/12 11:01:10;;;;;;;8.60;6.90;;;30.60;43.60;;;;;;5085342;28;20047;-64
2023/06/12 11:03:42;;;;;;;8.43;7.00;;;30.80;42.60;;;;;;5092966;28;20042;-65
2023/06/12 11:06:20;;;;;;;10.10;7.18;;;30.80;42.30;;;;;;5093472;28;20349;-65
2023/06/12 11:08:47;;;;;;;8.55;6.70;;;30.80;42.70;;;;;;5092983;28;20447;-64
2023/06/12 11:11:14;;;;;;;8.95;6.95;;;30.90;42.60;;;;;;5093252;28;20042;-64
2023/06/12 11:13:45;;;;;;;8.18;6.80;;;30.90;42.60;;;;;;5092561;28;20035;-65
2023/06/12 11:16:14;;;;;;;10.60;7.30;;;30.90;41.60;;;;;;5093078;28;20150;-64
2023/06/12 11:18:40;;;;;;;7.72;6.40;;;30.80;42.20;;;;;;5092082;28;20404;-65
2023/06/12 11:21:07;;;;;;;8.23;6.72;;;30.80;42.50;;;;;;5093126;28;20036;-64
2023/06/12 11:23:33;;;;;;;9.05;6.22;;;30.80;43.20;;;;;;5092748;28;20044;-65
2023/06/12 11:25:59;;;;;;;8.43;6.85;;;30.80;42.40;;;;;;5091706;28;20128;-65
2023/06/12 11:28:28;;;;;;;8.05;7.00;;;30.90;42.60;;;;;;5080502;28;20067;-65
2023/06/12 11:30:54;;;;;;;8.95;7.03;;;30.90;42.60;;;;;;5072788;28;20041;-64
2023/06/12 11:33:21;;;;;;;8.73;7.10;;;31.00;41.60;;;;;;5072502;28;20119;-64
2023/06/12 11:35:51;;;;;;;7.97;6.72;;;30.90;41.80;;;;;;5072085;28;20040;-64
2023/06/12 11:38:20;;;;;;;9.43;7.10;;;30.90;41.80;;;;;;5071364;28;20047;-64
2023/06/12 11:40:46;;;;;;;10.20;7.47;;;31.00;41.80;;;;;;5072401;28;20051;-65
2023/06/12 11:43:12;;;;;;;7.45;6.47;;;31.10;41.80;;;;;;5072095;28;20059;-64
2023/06/12 11:45:41;;;;;;;8.70;6.65;;;31.10;41.30;;;;;;5072234;28;20482;-64
2023/06/12 11:48:14;;;;;;;8.70;7.53;;;31.30;41.20;;;;;;5072528;28;20032;-65
2023/06/12 11:50:49;;;;;;;9.35;7.47;;;31.20;40.10;;;;;;5072338;28;20067;-64
2023/06/12 11:53:18;;;;;;;8.10;6.35;;;31.10;39.60;;;;;;5072081;28;20039;-64
2023/06/12 11:55:47;;;;;;;8.45;6.97;;;30.90;40.80;;;;;;5070965;28;20513;-64
2023/06/12 11:58:13;;;;;;;7.95;6.70;;;30.60;40.40;;;;;;5070983;28;20040;-64
2023/06/12 12:00:41;;;;;;;9.35;6.93;;;30.50;40.40;;;;;;5072256;28;20041;-64
2023/06/12 12:03:09;;;;;;;8.48;6.72;;;30.50;40.60;;;;;;5072052;28;20037;-64
2023/06/12 12:05:37;;;;;;;9.65;6.95;;;30.50;41.10;;;;;;5071928;28;20040;-64
2023/06/12 12:08:04;;;;;;;7.57;6.72;;;30.60;41.50;;;;;;5071912;28;20044;-64
2023/06/12 12:10:31;;;;;;;7.85;7.00;;;30.60;41.60;;;;;;5072156;28;20042;-64
2023/06/12 12:12:59;;;;;;;8.90;6.60;;;30.60;41.90;;;;;;5071939;28;20050;-64
2023/06/12 12:15:29;;;;;;;9.27;7.22;;;30.70;41.90;;;;;;5071795;28;20464;-64
2023/06/12 12:17:56;;;;;;;7.63;6.65;;;30.80;41.30;;;;;;5071898;28;20086;-64
2023/06/12 12:20:23;;;;;;;9.30;6.40;;;30.90;41.80;;;;;;5071853;28;20048;-65
2023/06/12 12:22:54;;;;;;;7.53;6.32;;;30.90;40.30;;;;;;5072368;28;20047;-64
2023/06/12 12:25:25;;;;;;;9.05;6.90;;;30.90;39.20;;;;;;5071155;28;20064;-64
2023/06/12 12:27:51;;;;;;;7.70;6.70;;;31.00;39.80;;;;;;5071811;28;20043;-64
2023/06/12 12:30:19;;;;;;;8.10;6.53;;;31.10;39.70;;;;;;5070502;28;20056;-65
2023/06/12 12:32:46;;;;;;;8.57;6.60;;;31.20;40.10;;;;;;5071415;28;20059;-64
2023/06/12 12:35:14;;;;;;;8.15;6.80;;;31.30;40.00;;;;;;5070055;28;20072;-64
2023/06/12 12:37:40;;;;;;;10.45;7.13;;;31.30;40.00;;;;;;5071928;28;20094;-65
2023/06/12 12:40:10;;;;;;;8.82;6.78;;;31.40;40.00;;;;;;5071736;28;20032;-64
2023/06/12 12:42:40;;;;;;;7.60;6.40;;;31.40;39.60;;;;;;5071812;28;20064;-64
2023/06/12 12:45:06;;;;;;;;;;;31.50;38.60;;;;;;5071826;28;20502;-64
2023/06/12 12:47:33;;;;;;;11.98;7.22;;;31.50;39.20;;;;;;5071295;28;19968;-65